Time;durP1;ratioP1;P1;durP2;ratioP2;P2;SDS_P1;SDS_P2;PMS_P1;PMS_P2;Temp;Humidity;BMP_temperature;BMP_pressure;BME280_temperature;BME280_humidity;BME280_pressure;Samples;Min_cycle;Max_cycle;Signal;HPM_P1;HPM_P2
2021/12/03 00:00:48;;;;;;;10.07;5.40;;;;;;;-145.69;100.00;72493.00;5113498;28;20209;-76
2021/12/03 00:03:15;;;;;;;15.57;5.17;;;;;;;-145.69;100.00;72491.00;5113548;28;20580;-77
2021/12/03 00:05:43;;;;;;;8.53;4.90;;;;;;;-145.69;100.00;72489.00;5113306;28;20683;-76
2021/12/03 00:08:10;;;;;;;10.97;4.90;;;;;;;-145.69;100.00;72512.91;5113244;28;20209;-75
2021/12/03 00:10:38;;;;;;;9.60;5.07;;;;;;;-145.69;100.00;72508.91;5113470;28;20204;-76
2021/12/03 00:13:08;;;;;;;12.53;5.03;;;;;;;-145.69;100.00;72508.91;5113530;28;20250;-75
2021/12/03 00:15:36;;;;;;;9.80;5.20;;;;;;;-145.69;100.00;72514.88;5113246;28;20201;-75
2021/12/03 00:18:02;;;;;;;8.47;4.80;;;;;;;-145.69;100.00;72520.84;5113282;28;20652;-76
2021/12/03 00:20:34;;;;;;;13.50;5.67;;;;;;;-145.69;100.00;72524.84;5112935;28;20225;-75
2021/12/03 00:23:04;;;;;;;10.53;5.53;;;;;;;-145.69;100.00;72530.81;5113417;28;20208;-75
2021/12/03 00:25:31;;;;;;;18.33;5.33;;;;;;;-145.69;100.00;72532.78;5113278;28;20200;-75
2021/12/03 00:27:57;;;;;;;10.90;5.13;;;;;;;-145.69;100.00;72530.81;5113185;28;20205;-75
2021/12/03 00:30:24;;;;;;;13.30;5.60;;;;;;;-145.69;100.00;72540.75;5113144;28;20204;-75
2021/12/03 00:32:50;;;;;;;8.80;5.00;;;;;;;-145.69;100.00;72548.72;5112911;28;20250;-75
2021/12/03 00:35:18;;;;;;;10.53;5.43;;;;;;;-145.69;100.00;72552.69;5116285;28;20205;-75
2021/12/03 00:37:46;;;;;;;12.17;4.97;;;;;;;-145.69;100.00;72550.72;5117104;28;20202;-76
2021/12/03 00:40:17;;;;;;;12.47;5.70;;;;;;;-145.69;100.00;72556.69;5117108;28;20224;-75
2021/12/03 00:42:44;;;;;;;9.07;5.57;;;;;;;-145.69;100.00;72568.63;5117146;28;20204;-76
2021/12/03 00:45:13;;;;;;;10.57;5.70;;;;;;;-145.69;100.00;72576.59;5116959;28;20660;-75
2021/12/03 00:47:40;;;;;;;9.63;5.67;;;;;;;-145.69;100.00;72572.59;5116746;28;20197;-76
2021/12/03 00:50:09;;;;;;;12.20;6.10;;;;;;;-145.69;100.00;72580.56;5116935;28;20224;-75
2021/12/03 00:52:35;;;;;;;11.80;6.23;;;;;;;-145.69;100.00;72588.53;5116864;28;20229;-75
2021/12/03 00:55:03;;;;;;;11.73;5.60;;;;;;;-145.69;100.00;72590.53;5116870;28;20223;-75
2021/12/03 00:57:31;;;;;;;13.63;5.67;;;;;;;-145.69;100.00;72580.56;5116370;28;20602;-75
2021/12/03 00:59:58;;;;;;;11.67;5.57;;;;;;;-145.69;100.00;72588.53;5116663;28;20204;-76
2021/12/03 01:02:24;;;;;;;12.53;5.13;;;;;;;-145.69;100.00;72600.47;5116787;28;20556;-76
2021/12/03 01:04:51;;;;;;;9.37;4.90;;;;;;;-145.69;100.00;72604.44;5116628;28;20193;-75
2021/12/03 01:07:18;;;;;;;13.43;5.87;;;;;;;-145.69;100.00;72610.44;5116681;28;20228;-75
2021/12/03 01:09:44;;;;;;;8.87;5.23;;;;;;;-145.69;100.00;72620.38;5116244;28;20193;-75
2021/12/03 01:12:12;;;;;;;8.00;4.97;;;;;;;-145.69;100.00;72618.38;5116348;28;20277;-75
2021/12/03 01:14:40;;;;;;;11.77;5.77;;;;;;;-145.69;100.00;72626.34;5116343;28;20206;-75
2021/12/03 01:17:08;;;;;;;10.97;5.27;;;;;;;-145.69;100.00;72630.31;5116546;28;20232;-75
2021/12/03 01:19:35;;;;;;;7.27;4.93;;;;;;;-145.69;100.00;72640.28;5128374;27;20671;-75
2021/12/03 01:22:01;;;;;;;9.80;5.27;;;;;;;-145.69;100.00;72636.31;5136911;27;20205;-75
2021/12/03 01:24:28;;;;;;;11.87;5.77;;;;;;;-145.69;100.00;72634.31;5133483;27;20669;-75
2021/12/03 01:26:55;;;;;;;10.67;5.63;;;;;;;-145.69;100.00;72640.28;5116673;28;20205;-75
2021/12/03 01:29:22;;;;;;;12.43;5.53;;;;;;;-145.69;100.00;72638.28;5115084;27;20547;-75
2021/12/03 01:31:51;;;;;;;11.87;6.03;;;;;;;-145.69;100.00;72632.31;5115732;28;20232;-75
2021/12/03 01:34:18;;;;;;;13.07;5.97;;;;;;;-145.69;100.00;72634.31;5115975;28;20644;-76
2021/12/03 01:36:44;;;;;;;14.20;5.90;;;;;;;-145.69;100.00;72628.34;5116129;28;20193;-75
2021/12/03 01:39:12;;;;;;;10.57;5.87;;;;;;;-145.69;100.00;72644.25;5116028;28;20201;-75
2021/12/03 01:41:39;;;;;;;14.50;6.30;;;;;;;-145.69;100.00;72642.28;5116076;28;20202;-75
2021/12/03 01:44:06;;;;;;;14.33;5.57;;;;;;;-145.69;100.00;72652.22;5115828;28;20212;-76
2021/12/03 01:46:33;;;;;;;11.67;5.80;;;;;;;-145.69;100.00;72656.22;5114606;28;20197;-76
2021/12/03 01:49:02;;;;;;;10.33;5.77;;;;;;;-145.69;100.00;72658.19;5115856;28;20205;-76
2021/12/03 01:51:29;;;;;;;11.23;5.67;;;;;;;-145.69;100.00;72662.19;5115681;28;20225;-75
2021/12/03 01:53:55;;;;;;;11.30;6.07;;;;;;;-145.69;100.00;72656.22;5115739;28;20205;-75
2021/12/03 01:56:24;;;;;;;11.87;5.80;;;;;;;-145.69;100.00;72656.22;5115567;28;20197;-75
2021/12/03 01:58:52;;;;;;;8.80;5.67;;;;;;;-145.69;100.00;72658.19;5115831;28;20224;-75
2021/12/03 02:01:21;;;;;;;9.83;5.63;;;;;;;-145.69;100.00;72656.22;5115441;28;20663;-75
2021/12/03 02:03:52;;;;;;;10.83;5.70;;;;;;;-145.69;100.00;72656.22;5115570;28;20206;-75
2021/12/03 02:06:21;;;;;;;7.47;4.70;;;;;;;-145.69;100.00;72664.16;5115544;28;20225;-75
2021/12/03 02:08:48;;;;;;;12.53;5.40;;;;;;;-145.69;100.00;72666.16;5115244;28;20675;-75
2021/12/03 02:11:15;;;;;;;12.83;5.63;;;;;;;-145.69;100.00;72672.13;5115403;28;20201;-75
2021/12/03 02:13:42;;;;;;;11.57;5.83;;;;;;;-145.69;100.00;72666.16;5115512;28;20204;-75
2021/12/03 02:16:10;;;;;;;12.73;6.07;;;;;;;-145.69;100.00;72666.16;5115319;28;20224;-75
2021/12/03 02:18:37;;;;;;;11.90;5.73;;;;;;;-145.69;100.00;72668.16;5115206;28;20193;-76
2021/12/03 02:21:07;;;;;;;9.40;5.53;;;;;;;-145.69;100.00;72680.09;5115133;28;20225;-75
2021/12/03 02:23:34;;;;;;;11.53;5.63;;;;;;;-145.69;100.00;72672.13;5114859;28;20205;-75
2021/12/03 02:26:01;;;;;;;13.77;6.17;;;;;;;-145.69;100.00;72682.09;5115247;28;20288;-75
2021/12/03 02:28:30;;;;;;;12.23;5.17;;;;;;;-145.69;100.00;72676.09;5115066;28;20201;-75
2021/12/03 02:30:56;;;;;;;9.70;4.97;;;;;;;-145.69;100.00;72668.16;5115018;28;20209;-75
2021/12/03 02:33:23;;;;;;;10.23;5.07;;;;;;;-145.69;100.00;72682.09;5114862;28;20237;-75
2021/12/03 02:35:51;;;;;;;10.60;5.40;;;;;;;-145.69;100.00;72688.06;5114650;28;20205;-75
2021/12/03 02:38:21;;;;;;;9.73;5.03;;;;;;;-145.69;100.00;72700.00;5114911;28;20262;-75
2021/12/03 02:40:49;;;;;;;9.77;5.17;;;;;;;-145.69;100.00;72707.97;5114961;28;20200;-75
2021/12/03 02:43:16;;;;;;;12.33;5.63;;;;;;;-145.69;100.00;72709.94;5114834;28;20588;-75
2021/12/03 02:45:43;;;;;;;15.63;6.00;;;;;;;-145.69;100.00;72701.97;5114650;28;20193;-75
2021/12/03 02:48:10;;;;;;;9.43;5.07;;;;;;;-145.69;100.00;72696.00;5114636;28;20679;-75
2021/12/03 02:50:37;;;;;;;8.73;5.13;;;;;;;-145.69;100.00;72703.97;5114510;27;20301;-75
2021/12/03 02:53:04;;;;;;;9.43;5.00;;;;;;;-145.69;100.00;72713.94;5114500;28;20256;-75
2021/12/03 02:55:32;;;;;;;10.43;4.80;;;;;;;-145.69;100.00;72725.88;5114750;28;20198;-76
2021/12/03 02:57:59;;;;;;;9.87;5.00;;;;;;;-145.69;100.00;72717.91;5113978;28;20560;-75
2021/12/03 03:00:27;;;;;;;8.47;4.90;;;;;;;-145.69;100.00;72723.88;5114401;28;20208;-75
2021/12/03 03:02:54;;;;;;;10.23;5.00;;;;;;;-145.69;100.00;72723.88;5114245;28;20254;-76
2021/12/03 03:05:23;;;;;;;10.47;5.03;;;;;;;-145.69;100.00;72727.88;5114399;28;20200;-76
2021/12/03 03:07:50;;;;;;;8.80;5.00;;;;;;;-145.69;100.00;72745.78;5114136;28;20197;-76
2021/12/03 03:10:22;;;;;;;9.77;5.43;;;;;;;-145.69;100.00;72747.78;5114259;28;20255;-76
2021/12/03 03:12:50;;;;;;;9.43;5.47;;;;;;;-145.69;100.00;72741.78;5114109;28;20695;-75
2021/12/03 03:15:18;;;;;;;10.40;4.67;;;;;;;-145.69;100.00;72749.75;5114111;28;20255;-76
2021/12/03 03:17:46;;;;;;;12.53;5.20;;;;;;;-145.69;100.00;72753.75;5114136;28;20200;-76
2021/12/03 03:20:13;;;;;;;9.47;5.10;;;;;;;-145.69;100.00;72759.72;5113775;28;20223;-76
2021/12/03 03:22:41;;;;;;;13.27;5.10;;;;;;;-145.69;100.00;72765.69;5115548;27;20625;-76
2021/12/03 03:25:10;;;;;;;9.97;4.97;;;;;;;-145.69;100.00;72787.56;5114047;28;20194;-76
2021/12/03 03:27:37;;;;;;;13.10;5.13;;;;;;;-145.69;100.00;72803.50;5113830;28;20240;-76
2021/12/03 03:30:08;;;;;;;10.50;5.70;;;;;;;-145.69;100.00;72803.50;5113824;28;20542;-75
2021/12/03 03:32:35;;;;;;;10.83;5.60;;;;;;;-145.69;100.00;72813.47;5114014;28;20236;-75
2021/12/03 03:35:01;;;;;;;10.90;5.47;;;;;;;-145.69;100.00;72823.41;5113814;28;20260;-75
2021/12/03 03:37:28;;;;;;;11.50;5.57;;;;;;;-145.69;100.00;72843.31;5113787;28;20193;-76
2021/12/03 03:39:54;;;;;;;9.83;5.33;;;;;;;-145.69;100.00;72851.28;5113748;28;20205;-76
2021/12/03 03:42:21;;;;;;;10.57;5.63;;;;;;;-145.69;100.00;72851.28;5113613;28;20197;-75
2021/12/03 03:44:47;;;;;;;11.30;5.67;;;;;;;-145.69;100.00;72863.22;5113447;28;20194;-76
2021/12/03 03:47:15;;;;;;;13.37;5.70;;;;;;;-145.69;100.00;72855.25;5113425;28;20193;-74
2021/12/03 03:49:42;;;;;;;15.80;6.17;;;;;;;-145.69;100.00;72857.25;5113559;28;20231;-75
2021/12/03 03:52:09;;;;;;;17.70;6.57;;;;;;;-145.69;100.00;72867.19;5113321;28;20228;-75
2021/12/03 03:54:36;;;;;;;12.83;6.17;;;;;;;-145.69;100.00;72867.19;5113534;28;20210;-75
2021/12/03 03:57:03;;;;;;;13.43;7.27;;;;;;;-145.69;100.00;72873.19;5113535;28;20193;-75
2021/12/03 03:59:30;;;;;;;15.23;6.70;;;;;;;-145.69;100.00;72887.09;5113501;28;20198;-76
2021/12/03 04:01:56;;;;;;;12.70;6.37;;;;;;;-145.69;100.00;72859.25;5113588;28;20266;-75
2021/12/03 04:04:25;;;;;;;20.30;6.53;;;;;;;-145.69;100.00;72863.22;5113578;28;20243;-75
2021/12/03 04:06:52;;;;;;;13.33;6.57;;;;;;;-145.69;100.00;72863.22;5113098;28;20202;-75
2021/12/03 04:09:18;;;;;;;13.83;6.93;;;;;;;-145.69;100.00;72855.25;5114619;28;20193;-75
2021/12/03 04:11:45;;;;;;;14.87;6.80;;;;;;;-145.69;100.00;72853.28;5117413;28;20250;-76
2021/12/03 04:14:11;;;;;;;14.33;6.60;;;;;;;-145.69;100.00;72849.28;5117529;28;20208;-75
2021/12/03 04:16:38;;;;;;;14.73;7.00;;;;;;;-145.69;100.00;72849.28;5117449;28;20197;-76
2021/12/03 04:19:04;;;;;;;13.77;6.60;;;;;;;-145.69;100.00;72841.31;5117673;28;20201;-76
2021/12/03 04:21:32;;;;;;;16.80;6.90;;;;;;;-145.69;100.00;72839.34;5117230;28;20197;-76
2021/12/03 04:23:59;;;;;;;14.73;6.37;;;;;;;-145.69;100.00;72837.34;5117427;28;20212;-76
2021/12/03 04:26:25;;;;;;;16.10;5.70;;;;;;;-145.69;100.00;72851.28;5117284;28;20209;-76
2021/12/03 04:28:52;;;;;;;12.30;5.40;;;;;;;-145.69;100.00;72853.28;5117453;28;20206;-75
2021/12/03 04:31:18;;;;;;;9.27;5.20;;;;;;;-145.69;100.00;72861.22;5117486;28;20197;-75
2021/12/03 04:33:45;;;;;;;14.17;5.87;;;;;;;-145.69;100.00;72867.19;5116990;28;20225;-76
2021/12/03 04:36:11;;;;;;;11.63;4.90;;;;;;;-145.69;100.00;72865.22;5117160;28;20202;-76
2021/12/03 04:38:39;;;;;;;14.30;5.77;;;;;;;-145.69;100.00;72865.22;5117162;28;20198;-75
2021/12/03 04:41:06;;;;;;;14.40;5.83;;;;;;;-145.69;100.00;72869.19;5117042;28;20219;-76
2021/12/03 04:43:32;;;;;;;18.17;6.37;;;;;;;-145.69;100.00;72865.22;5116764;28;20561;-75
2021/12/03 04:45:59;;;;;;;10.47;5.50;;;;;;;-145.69;100.00;72859.25;5117130;28;20201;-75
2021/12/03 04:48:26;;;;;;;13.13;5.00;;;;;;;-145.69;100.00;72849.28;5116907;28;20204;-75
2021/12/03 04:50:52;;;;;;;9.37;4.97;;;;;;;-145.69;100.00;72851.28;5116996;28;20223;-75
2021/12/03 04:53:20;;;;;;;8.57;4.43;;;;;;;-145.69;100.00;72851.28;5116583;28;20687;-75
2021/12/03 04:55:48;;;;;;;7.33;4.10;;;;;;;-145.69;100.00;72859.25;5117003;28;20293;-75
2021/12/03 04:58:16;;;;;;;9.63;4.43;;;;;;;-145.69;100.00;72867.19;5116770;28;20205;-76
2021/12/03 05:00:46;;;;;;;8.40;4.33;;;;;;;-145.69;100.00;72871.19;5116775;28;20205;-76
2021/12/03 05:03:13;;;;;;;10.07;4.83;;;;;;;-145.69;100.00;72879.16;5116694;28;20246;-76
2021/12/03 05:05:44;;;;;;;9.53;4.77;;;;;;;-145.69;100.00;72873.19;5116636;28;20201;-76
2021/12/03 05:08:11;;;;;;;8.20;5.03;;;;;;;-145.69;100.00;72873.19;5116512;28;20233;-75
2021/12/03 05:10:40;;;;;;;15.07;5.50;;;;;;;-145.69;100.00;72879.16;5116612;28;20208;-76
2021/12/03 05:13:10;;;;;;;9.47;5.40;;;;;;;-145.69;100.00;72885.13;5116384;28;20933;-76
2021/12/03 05:15:38;;;;;;;10.37;5.30;;;;;;;-145.69;100.00;72883.13;5116790;28;20284;-76
2021/12/03 05:18:05;;;;;;;9.53;4.97;;;;;;;-145.69;100.00;72869.19;5118733;27;20204;-76
2021/12/03 05:20:32;;;;;;;9.83;4.43;;;;;;;-145.69;100.00;72887.09;5115764;28;20243;-76
2021/12/03 05:22:59;;;;;;;10.67;5.23;;;;;;;-145.69;100.00;72897.06;5116431;28;20533;-76
2021/12/03 05:25:26;;;;;;;12.47;5.13;;;;;;;-145.69;100.00;72895.06;5116491;28;20300;-76
2021/12/03 05:27:54;;;;;;;10.57;5.63;;;;;;;-145.69;100.00;72897.06;5116173;28;20669;-75
2021/12/03 05:30:22;;;;;;;13.97;5.40;;;;;;;-145.69;100.00;72901.03;5116244;28;20204;-76
2021/12/03 05:32:49;;;;;;;12.10;5.67;;;;;;;-145.69;100.00;72907.00;5115932;28;20217;-76
2021/12/03 05:35:15;;;;;;;9.60;5.40;;;;;;;-145.69;100.00;72903.03;5115974;28;20652;-76
2021/12/03 05:37:42;;;;;;;20.57;6.37;;;;;;;-145.69;100.00;72911.00;5116153;28;20274;-76
2021/12/03 05:40:11;;;;;;;12.13;5.93;;;;;;;-145.69;100.00;72920.94;5115994;28;20205;-76
2021/12/03 05:42:38;;;;;;;15.13;5.97;;;;;;;-145.69;100.00;72920.94;5115999;28;20201;-76
2021/12/03 05:45:05;;;;;;;14.67;5.63;;;;;;;-145.69;100.00;72922.94;5115923;28;20201;-75
2021/12/03 05:47:33;;;;;;;14.67;6.23;;;;;;;-145.69;100.00;72930.91;5115690;28;20197;-76
2021/12/03 05:50:00;;;;;;;10.43;5.23;;;;;;;-145.69;100.00;72952.78;5115851;28;20198;-76
2021/12/03 05:52:27;;;;;;;14.97;5.83;;;;;;;-145.69;100.00;72958.78;5115702;28;20288;-75
2021/12/03 05:54:53;;;;;;;12.23;6.00;;;;;;;-145.69;100.00;72970.72;5115612;28;20765;-76
2021/12/03 05:57:19;;;;;;;12.93;6.07;;;;;;;-145.69;100.00;72970.72;5115653;28;20250;-76
2021/12/03 05:59:49;;;;;;;19.03;6.87;;;;;;;-145.69;100.00;72976.69;5115561;28;20223;-76
2021/12/03 06:02:15;;;;;;;14.20;6.50;;;;;;;-145.69;100.00;72974.69;5115383;28;20279;-76
2021/12/03 06:04:45;;;;;;;16.30;7.40;;;;;;;-145.69;100.00;72984.66;5115392;28;20652;-76
2021/12/03 06:07:11;;;;;;;15.13;7.23;;;;;;;-145.69;100.00;72980.66;5115588;28;20213;-76
2021/12/03 06:09:38;;;;;;;14.50;7.07;;;;;;;-145.69;100.00;72978.69;5115590;28;20205;-76
2021/12/03 06:12:06;;;;;;;14.73;6.80;;;;;;;-145.69;100.00;72978.69;5115375;28;20193;-76
2021/12/03 06:14:32;;;;;;;18.87;7.20;;;;;;;-145.69;100.00;72982.66;5115095;28;20228;-76
2021/12/03 06:16:59;;;;;;;16.47;7.97;;;;;;;-145.69;100.00;72970.72;5115189;28;20251;-75
2021/12/03 06:19:25;;;;;;;21.30;10.98;;;;;;;-145.69;100.00;72982.66;5114161;28;20851;-76
2021/12/03 06:21:53;;;;;;;17.67;8.33;;;;;;;-145.69;100.00;72988.63;5115199;28;20221;-76
2021/12/03 06:24:20;;;;;;;17.37;8.10;;;;;;;-145.69;100.00;72984.66;5115119;28;20202;-76
2021/12/03 06:26:47;;;;;;;19.17;8.00;;;;;;;-145.69;100.00;72994.59;5114918;28;20201;-76
2021/12/03 06:29:13;;;;;;;17.07;8.07;;;;;;;-145.69;100.00;73000.56;5114756;28;20212;-76
2021/12/03 06:31:40;;;;;;;19.27;8.67;;;;;;;-145.69;100.00;73006.53;5114325;28;20208;-76
2021/12/03 06:34:06;;;;;;;18.63;8.20;;;;;;;-145.69;100.00;73014.50;5114833;28;20261;-76
2021/12/03 06:36:33;;;;;;;19.07;8.30;;;;;;;-145.69;100.00;73008.53;5114694;28;20204;-76
2021/12/03 06:39:01;;;;;;;14.90;7.03;;;;;;;-145.69;100.00;73014.50;5114812;28;20204;-76
2021/12/03 06:41:27;;;;;;;19.07;8.40;;;;;;;-145.69;100.00;73018.50;5114716;28;20224;-76
2021/12/03 06:43:54;;;;;;;18.17;7.97;;;;;;;-145.69;100.00;73040.38;5114441;28;20608;-76
2021/12/03 06:46:20;;;;;;;14.60;6.37;;;;;;;-145.69;100.00;73048.34;5114744;28;20193;-75
2021/12/03 06:48:47;;;;;;;15.37;7.17;;;;;;;-145.69;100.00;73072.25;5114703;28;20197;-75
2021/12/03 06:51:13;;;;;;;12.83;6.10;;;;;;;-145.69;100.00;73086.19;5114626;28;20201;-75
2021/12/03 06:53:44;;;;;;;15.03;6.60;;;;;;;-145.69;100.00;73102.09;5114340;28;20710;-76
2021/12/03 06:56:20;;;;;;;14.97;6.97;;;;;;;-145.69;100.00;73106.09;5114546;28;20205;-74
2021/12/03 06:58:47;;;;;;;13.77;6.70;;;;;;;-145.69;100.00;73133.94;5114711;27;20229;-75
2021/12/03 07:01:15;;;;;;;14.23;6.30;;;;;;;-145.69;100.00;73163.81;5114446;28;20193;-75
2021/12/03 07:03:41;;;;;;;14.50;6.03;;;;;;;-145.69;100.00;73175.75;5114399;28;20201;-75
2021/12/03 07:06:07;;;;;;;13.90;5.63;;;;;;;-145.69;100.00;73181.72;5114276;28;20206;-75
2021/12/03 07:08:34;;;;;;;13.30;5.73;;;;;;;-145.69;100.00;73209.59;5114098;28;20197;-75
2021/12/03 07:11:00;;;;;;;13.93;5.23;;;;;;;-145.69;100.00;73223.53;5113972;28;20205;-75
2021/12/03 07:13:30;;;;;;;13.90;6.30;;;;;;;-145.69;100.00;73223.53;5114123;28;20221;-75
2021/12/03 07:15:57;;;;;;;24.40;6.87;;;;;;;-145.69;100.00;73221.53;5114513;28;20288;-75
2021/12/03 07:18:24;;;;;;;19.57;6.60;;;;;;;-145.69;100.00;73231.50;5113862;28;20604;-75
2021/12/03 07:20:50;;;;;;;19.00;8.70;;;;;;;-145.69;100.00;73231.50;5113804;28;20229;-75
2021/12/03 07:23:17;;;;;;;24.20;9.90;;;;;;;-145.69;100.00;73225.53;5116251;27;20212;-75
2021/12/03 07:25:43;;;;;;;23.70;9.50;;;;;;;-145.69;100.00;73225.53;5113716;28;20197;-75
2021/12/03 07:28:11;;;;;;;22.20;8.77;;;;;;;-145.69;100.00;73215.56;5113918;28;20194;-75
2021/12/03 07:30:39;;;;;;;23.03;8.43;;;;;;;-145.69;100.00;73201.63;5113882;28;20201;-75
2021/12/03 07:33:07;;;;;;;24.80;10.43;;;;;;;-145.69;100.00;73181.72;5113701;28;20236;-75
2021/12/03 07:35:34;;;;;;;23.97;10.13;;;;;;;-145.69;100.00;73165.81;5113612;28;20640;-75
2021/12/03 07:38:00;;;;;;;26.27;10.97;;;;;;;-145.69;100.00;73155.84;5113536;28;20202;-75
2021/12/03 07:40:27;;;;;;;37.20;12.90;;;;;;;-145.69;100.00;73151.88;5113791;28;20200;-75
2021/12/03 07:42:53;;;;;;;30.33;11.97;;;;;;;-145.69;100.00;73137.94;5113421;28;20208;-75
2021/12/03 07:45:20;;;;;;;28.47;10.70;;;;;;;-145.69;100.00;73145.91;5113699;28;20606;-75
2021/12/03 07:47:48;;;;;;;21.73;8.27;;;;;;;-145.69;100.00;73143.91;5113265;28;20308;-75
2021/12/03 07:50:15;;;;;;;20.13;8.50;;;;;;;-145.69;100.00;73149.88;5113451;28;20201;-75
2021/12/03 07:52:42;;;;;;;21.17;8.37;;;;;;;-145.69;100.00;73149.88;5113435;28;20651;-75
2021/12/03 07:55:10;;;;;;;14.77;6.73;;;;;;;-145.69;100.00;73155.84;5113322;28;20278;-75
2021/12/03 07:57:36;;;;;;;15.23;6.53;;;;;;;-145.69;100.00;73165.81;5113662;28;20584;-75
2021/12/03 08:00:04;;;;;;;18.77;6.30;;;;;;;-145.69;100.00;73177.75;5113512;28;20204;-75
2021/12/03 08:02:30;;;;;;;16.35;7.85;;;;;;;-145.69;100.00;73177.75;5112155;28;20438;-75
2021/12/03 08:04:58;;;;;;;13.83;6.23;;;;;;;-145.69;100.00;73177.75;5113343;28;20247;-75
2021/12/03 08:07:25;;;;;;;11.60;5.73;;;;;;;-145.69;100.00;73165.81;5113418;28;20212;-75
2021/12/03 08:09:52;;;;;;;9.77;5.20;;;;;;;-145.69;100.00;73143.91;5113456;28;20201;-75
2021/12/03 08:12:18;;;;;;;12.33;5.90;;;;;;;-145.69;100.00;73108.06;5113422;28;20201;-75
2021/12/03 08:14:45;;;;;;;15.70;6.30;;;;;;;-145.69;100.00;73078.22;5113154;28;20274;-75
2021/12/03 08:17:11;;;;;;;13.33;7.40;;;;;;;-145.69;100.00;73082.19;5113339;28;20201;-75
2021/12/03 08:19:38;;;;;;;10.93;5.67;;;;;;;-145.69;100.00;73094.13;5112989;28;20259;-75
2021/12/03 08:22:07;;;;;;;11.63;5.47;;;;;;;-145.69;100.00;73104.09;5113154;28;20644;-75
2021/12/03 08:24:33;;;;;;;9.57;4.83;;;;;;;-145.69;100.00;73110.06;5113092;28;20717;-74
2021/12/03 08:27:00;;;;;;;13.53;4.77;;;;;;;-145.69;100.00;73122.00;5113047;28;20725;-75
2021/12/03 08:29:27;;;;;;;8.03;3.97;;;;;;;-145.69;100.00;73137.94;5113180;28;20208;-75
2021/12/03 08:31:53;;;;;;;8.90;4.47;;;;;;;-145.69;100.00;73145.91;5113057;28;20549;-75
2021/12/03 08:34:20;;;;;;;11.63;4.67;;;;;;;-145.69;100.00;73157.84;5112831;28;20691;-75
2021/12/03 08:36:47;;;;;;;11.70;4.30;;;;;;;-145.69;100.00;73169.78;5113140;28;20200;-74
2021/12/03 08:39:15;;;;;;;10.43;4.83;;;;;;;-145.69;100.00;73173.75;5112843;28;20288;-74
2021/12/03 08:41:41;;;;;;;13.40;4.60;;;;;;;-145.69;100.00;73173.75;5113095;28;20219;-74
2021/12/03 08:44:08;;;;;;;8.97;4.33;;;;;;;-145.69;100.00;73161.81;5112995;28;20198;-75
2021/12/03 08:46:35;;;;;;;8.70;3.90;;;;;;;-145.69;100.00;73163.81;5112890;28;20209;-74
2021/12/03 08:49:08;;;;;;;11.07;3.97;;;;;;;-145.69;100.00;73151.88;5112807;28;20198;-74
2021/12/03 08:51:48;;;;;;;7.73;3.73;;;;;;;-145.69;100.00;73149.88;5112995;28;20240;-74
2021/12/03 08:57:01;;;;;;;12.23;4.40;;;;;;;-145.69;100.00;73133.94;5137177;27;20714;-75
2021/12/03 08:59:27;;;;;;;6.90;3.63;;;;;;;-145.69;100.00;73112.06;5136979;27;20662;-75
2021/12/03 09:01:54;;;;;;;12.77;4.80;;;;;;;-145.69;100.00;73114.03;5137175;27;20204;-75
2021/12/03 09:04:20;;;;;;;6.23;3.33;;;;;;;-145.69;100.00;73110.06;5137141;27;20200;-75
2021/12/03 09:06:47;;;;;;;9.83;3.77;;;;;;;-145.69;100.00;73102.09;5137257;27;20196;-75
2021/12/03 09:09:13;;;;;;;8.27;3.73;;;;;;;-145.69;100.00;73086.19;5136892;27;20197;-75
2021/12/03 09:11:41;;;;;;;8.33;3.73;;;;;;;-145.69;100.00;73082.19;5136796;27;20201;-74
2021/12/03 09:14:15;;;;;;;8.67;4.30;;;;;;;-145.69;100.00;73074.22;5129710;27;20252;-74
2021/12/03 09:16:42;;;;;;;7.40;3.57;;;;;;;-145.69;100.00;73074.22;5116319;28;20201;-74
2021/12/03 09:19:16;;;;;;;9.30;3.77;;;;;;;-145.69;100.00;73068.25;5116348;28;20197;-74
2021/12/03 09:21:43;;;;;;;6.00;3.80;;;;;;;-145.69;100.00;73060.28;5122094;27;20235;-74
2021/12/03 09:24:12;;;;;;;8.13;3.13;;;;;;;-145.69;100.00;73062.28;5136653;27;20608;-74
2021/12/03 09:26:41;;;;;;;6.60;3.40;;;;;;;-145.69;100.00;73050.34;5136955;27;20201;-74
2021/12/03 09:29:11;;;;;;;8.47;3.70;;;;;;;-145.69;100.00;73042.38;5136695;27;20639;-74
2021/12/03 09:31:41;;;;;;;9.33;4.43;;;;;;;-145.69;100.00;73038.41;5136703;27;20197;-74
2021/12/03 09:34:10;;;;;;;12.40;4.37;;;;;;;-145.69;100.00;73042.38;5136516;27;20225;-74
2021/12/03 09:36:39;;;;;;;15.17;4.70;;;;;;;-145.69;100.00;73036.41;5136355;27;20245;-74
2021/12/03 09:39:06;;;;;;;7.20;4.03;;;;;;;-145.69;100.00;73034.41;5136344;27;20200;-74
2021/12/03 09:41:33;;;;;;;12.27;4.60;;;;;;;-145.69;100.00;73028.44;5136531;27;20201;-74
2021/12/03 09:44:00;;;;;;;7.00;3.67;;;;;;;-145.69;100.00;73022.47;5136413;27;20211;-74
2021/12/03 09:46:30;;;;;;;11.23;3.57;;;;;;;-145.69;100.00;73014.50;5136319;27;20205;-75
2021/12/03 09:49:23;;;;;;;6.32;3.80;;;;;;;-145.69;100.00;72998.59;5135262;27;20528;-74
2021/12/03 09:52:02;;;;;;;8.40;3.23;;;;;;;-145.69;100.00;72982.66;5136069;27;20671;-74
2021/12/03 09:54:33;;;;;;;6.83;3.53;;;;;;;-145.69;100.00;72972.72;5136103;27;20255;-74
2021/12/03 09:57:05;;;;;;;5.60;2.97;;;;;;;-145.69;100.00;72956.78;5136015;27;20201;-74
2021/12/03 10:02:21;;;;;;;7.93;3.20;;;;;;;-145.69;100.00;72956.78;5136131;27;20271;-74
2021/12/03 10:13:18;;;;;;;5.00;3.20;;;;;;;-145.69;100.00;72895.06;5090440;27;20195;-74
2021/12/03 10:15:53;;;;;;;9.87;2.87;;;;;;;-145.69;100.00;72875.16;5135433;27;20231;-74
2021/12/03 10:18:42;;;;;;;3.87;2.70;;;;;;;-145.69;100.00;72871.19;5135824;27;20196;-74
2021/12/03 10:21:20;;;;;;;3.13;2.23;;;;;;;-145.69;100.00;72881.13;5135275;27;20280;-74
2021/12/03 10:29:39;;;;;;;5.97;2.60;;;;;;;-145.69;100.00;72859.25;5135325;27;20739;-74
2021/12/03 10:38:04;;;;;;;7.30;2.40;;;;;;;-145.69;100.00;72835.34;5135215;27;20203;-74
2021/12/03 10:49:34;;;;;;;4.80;2.87;;;;;;;-145.69;100.00;72819.44;5092893;27;20208;-74
2021/12/03 11:06:45;;;;;;;4.20;2.37;;;;;;;-145.69;96.98;72759.72;5134637;27;20196;-74
2021/12/03 11:29:16;;;;;;;7.63;3.40;;;;;;;-145.69;99.95;72707.97;5113798;28;20237;-75
2021/12/03 11:44:20;;;;;;;2.10;1.90;;;;;;;-145.69;87.68;72580.56;5113754;28;20246;-75
2021/12/03 13:08:45;;;;;;;5.47;2.63;;;;;;;-145.69;81.25;72423.31;5116889;28;20670;-76
2021/12/03 13:56:58;;;;;;;3.27;1.17;;;;;;;-145.69;84.47;72481.03;5134843;27;20327;-76
2021/12/03 14:02:47;;;;;;;2.23;1.20;;;;;;;-145.69;83.60;72453.19;5134089;27;20752;-76
2021/12/03 14:05:54;;;;;;;5.03;1.37;;;;;;;-145.69;86.74;72477.06;5134194;27;20192;-76
2021/12/03 14:42:00;;;;;;;7.43;3.50;;;;;;;-145.69;84.65;72485.03;5112034;27;20258;-76
2021/12/03 14:44:30;;;;;;;4.80;3.00;;;;;;;-145.69;89.21;72481.03;5135438;27;20201;-76
2021/12/03 14:47:32;;;;;;;5.73;2.40;;;;;;;-145.69;87.60;72467.13;5135319;27;20197;-76
2021/12/03 14:53:07;;;;;;;3.07;1.50;;;;;;;-145.69;89.14;72504.94;5134321;27;20201;-75
2021/12/03 14:55:34;;;;;;;5.93;1.63;;;;;;;-145.69;87.75;72504.94;5135111;27;20301;-76
2021/12/03 14:58:02;;;;;;;1.57;1.27;;;;;;;-145.69;84.60;72504.94;5135214;27;20540;-76
2021/12/03 15:00:33;;;;;;;3.00;1.67;;;;;;;-145.69;82.29;72536.78;5135209;27;20291;-76
2021/12/03 15:03:11;;;;;;;3.80;1.30;;;;;;;-145.69;83.82;72552.69;5135107;27;20250;-76
2021/12/03 15:05:52;;;;;;;4.33;1.80;;;;;;;-145.69;84.39;72560.66;5135103;27;20284;-76
2021/12/03 15:08:22;;;;;;;3.85;1.55;;;;;;;-145.69;85.85;72558.66;5133606;27;20444;-76
2021/12/03 15:11:22;;;;;;;6.83;2.37;;;;;;;-145.69;85.72;72576.59;5134703;27;20674;-77
2021/12/03 15:24:55;;;;;;;10.10;4.63;;;;;;;-145.69;90.33;72638.28;5071943;28;20544;-76
2021/12/03 15:27:49;;;;;;;7.80;4.93;;;;;;;-145.69;90.16;72636.31;5093685;28;20197;-76
2021/12/03 15:33:03;;;;;;;6.10;2.60;;;;;;;-145.69;94.25;72640.28;5072767;28;20604;-75